Arlat Virtual - Aerolinea Argentina Latinoamericana Virtual


 INFORMACIÓN METAR y TAF
METAR FOR KMIA
ADDS - METARS form results

(1925 UTC 20 September 2020)
Data provider http://aviationweather.gov/metar/data/
 
METAR text: KMIA 201918Z 18006KT 10SM SCT025 BKN065 BKN100 BKN250 31/25 A2989 RMK AO2 LTG DSNT S TSE1857 CB DSNT S-SW AND NW T03060250
Conditions at: KMIA (MIAMI , FL, US) observed 1918 UTC 20 September 2020
Temperature: 30.6°C (87°F)
Dewpoint: 25.0°C (77°F) [RH = 72%]
Pressure (altimeter): 29.89 inches Hg (1012.3 mb)
Winds: from the S (180 degrees) at 7 MPH (6 knots; 3.1 m/s)
Visibility: 10 or more miles (16+ km)
Ceiling: 6500 feet AGL
Clouds: scattered clouds at 2500 feet AGL
broken clouds at 6500 feet AGL
broken clouds at 10000 feet AGL
broken clouds at 25000 feet AGL
Weather: no significant weather observed at this time

METAR text: KMIA 201903Z 17006KT 10SM VCTS SCT025 BKN055 BKN110 BKN250 31/25 A2989 RMK AO2 TSE1857 CB DSNT S AND NW-N T03060250
Conditions at: KMIA (MIAMI , FL, US) observed 1903 UTC 20 September 2020
Temperature: 30.6°C (87°F)
Dewpoint: 25.0°C (77°F) [RH = 72%]
Pressure (altimeter): 29.89 inches Hg (1012.3 mb)
Winds: from the S (170 degrees) at 7 MPH (6 knots; 3.1 m/s)
Visibility: 10 or more miles (16+ km)
Ceiling: 5500 feet AGL
Clouds: scattered clouds at 2500 feet AGL
broken clouds at 5500 feet AGL
broken clouds at 11000 feet AGL
broken clouds at 25000 feet AGL
Weather: VCTS  (thunderstorm in vicinity)

METAR text: KMIA 201853Z 20005KT 10SM SCT025 BKN055 BKN110 BKN250 30/24 A2989 RMK AO2 TSE49 SLP120 TS DSIPTD CB DSNT SW AND NW-N T03000244
Conditions at: KMIA (MIAMI , FL, US) observed 1853 UTC 20 September 2020
Temperature: 30.0°C (86°F)
Dewpoint: 24.4°C (76°F) [RH = 72%]
Pressure (altimeter): 29.89 inches Hg (1012.3 mb)
[Sea-level pressure: 1012.0 mb]
Winds: from the SSW (200 degrees) at 6 MPH (5 knots; 2.6 m/s)
Visibility: 10 or more miles (16+ km)
Ceiling: 5500 feet AGL
Clouds: scattered clouds at 2500 feet AGL
broken clouds at 5500 feet AGL
broken clouds at 11000 feet AGL
broken clouds at 25000 feet AGL
Weather: no significant weather observed at this time

METAR text: KMIA 201849Z 22006KT 10SM SCT025CB BKN055 BKN110 BKN250 30/24 A2989 RMK AO2 TSE49 TS DSIPTD CB N-NE AND DSNT SW AND NW
Conditions at: KMIA (MIAMI , FL, US) observed 1849 UTC 20 September 2020
Temperature: 30.0°C (86°F)
Dewpoint: 24.0°C (75°F) [RH = 70%]
Pressure (altimeter): 29.89 inches Hg (1012.3 mb)
Winds: from the SW (220 degrees) at 7 MPH (6 knots; 3.1 m/s)
Visibility: 10 or more miles (16+ km)
Ceiling: 5500 feet AGL
Clouds: scattered clouds at 2500 feet AGL
broken clouds at 5500 feet AGL
broken clouds at 11000 feet AGL
broken clouds at 25000 feet AGL
Weather: no significant weather observed at this time

Forecast for: KMIA (MIAMI , FL, US)
Text: KMIA 201728Z 2018/2124 10010KT P6SM VCTS SCT025CB BKN050
Forecast period: 1800 UTC 20 September 2020 to 0000 UTC 21 September 2020
Forecast type: FROM: standard forecast or significant change
Winds: from the E (100 degrees) at 12 MPH (10 knots; 5.1 m/s)
Visibility: 6 or more miles (10+ km)
Ceiling: 5000 feet AGL
Clouds: scattered clouds at 2500 feet AGL
broken clouds at 5000 feet AGL
Weather: VCTS  (thunderstorm in vicinity)
Text: FM210000 06005KT P6SM VCSH FEW015 SCT025 BKN050
Forecast period: 0000 to 0700 UTC 21 September 2020
Forecast type: FROM: standard forecast or significant change
Winds: from the ENE (60 degrees) at 6 MPH (5 knots; 2.6 m/s)
Visibility: 6 or more miles (10+ km)
Ceiling: 5000 feet AGL
Clouds: few clouds at 1500 feet AGL
scattered clouds at 2500 feet AGL
broken clouds at 5000 feet AGL
Weather: VCSH  (showers in vicinity)
Text: FM210700 05010G20KT P6SM VCTS FEW015 SCT025CB BKN050
Forecast period: 0700 to 1400 UTC 21 September 2020
Forecast type: FROM: standard forecast or significant change
Winds: from the NE (50 degrees) at 12 MPH (10 knots; 5.1 m/s)
gusting to 23 MPH (20 knots; 10.3 m/s)
Visibility: 6 or more miles (10+ km)
Ceiling: 5000 feet AGL
Clouds: few clouds at 1500 feet AGL
scattered clouds at 2500 feet AGL
broken clouds at 5000 feet AGL
Weather: VCTS  (thunderstorm in vicinity)
Text: FM211400 05015G25KT P6SM VCTS FEW015 SCT025CB BKN050
Forecast period: 1400 UTC 21 September 2020 to 0000 UTC 22 September 2020
Forecast type: FROM: standard forecast or significant change
Winds: from the NE (50 degrees) at 17 MPH (15 knots; 7.7 m/s)
gusting to 29 MPH (25 knots; 12.9 m/s)
Visibility: 6 or more miles (10+ km)
Ceiling: 5000 feet AGL
Clouds: few clouds at 1500 feet AGL
scattered clouds at 2500 feet AGL
broken clouds at 5000 feet AGL
Weather: VCTS  (thunderstorm in vicinity)

 MAPA DE AEROPUERTO

 INFORMACIÓN DE PISTA
Pista 08L Longitud 8600 ft Ancho 150 ft
Elevación 8 ft Umbral desplazado 0 ft Rumbo de pista 87
Pista 26R Longitud 8600 ft Ancho 150 ft
Elevación 8 ft Umbral desplazado 0 ft Rumbo de pista 267
Pista 08R Longitud 10506 ft Ancho 200 ft
Elevación 8 ft Umbral desplazado 0 ft Rumbo de pista 87
Pista 26L Longitud 10506 ft Ancho 200 ft
Elevación 8 ft Umbral desplazado 0 ft Rumbo de pista 267
Pista 09 Longitud 13000 ft Ancho 150 ft
Elevación 7 ft Umbral desplazado 1350 ft Rumbo de pista 87
Pista 27 Longitud 13000 ft Ancho 150 ft
Elevación 8 ft Umbral desplazado 1270 ft Rumbo de pista 267
Pista 12 Longitud 9354 ft Ancho 150 ft
Elevación 8 ft Umbral desplazado 0 ft Rumbo de pista 119
Pista 30 Longitud 9354 ft Ancho 150 ft
Elevación 8 ft Umbral desplazado 939 ft Rumbo de pista 299

 FRECUANCIAS DEL AEROPUERTO
Tipo APP Nombre APP Frecuencia 120.5 MHZ
Tipo ATIS Nombre ATIS Frecuencia 119.15 MHZ
Tipo CLD Nombre CLNC DEL Frecuencia 120.35 MHZ
Tipo DEP Nombre DEP Frecuencia 119.45 MHZ
Tipo GND Nombre GND Frecuencia 121.8 MHZ
Tipo TWR Nombre TWR Frecuencia 118.3 MHZ
Tipo UNIC Nombre UNICOM Frecuencia 123 MHZ

 RADIO AYUDAS DEL AEROPUERTO
Tipo VORTAC Nombre Dolphin Frecuencia 113900 KHZ
Tipo NDB Nombre Keyes Frecuencia 248 KHZ